感謝!

LUXURY FLIGHT

03-6423-7371

羽田本店:東京都大田区羽田5-11-1
営業時間:10:00~20:00
定休日:毎週 月曜日
セントレア店:愛知県常滑市セントレア1-1
営業時間:10:00~20:00 年中無休

lv

感謝!

STAFF BLOG

2019/05/18 感謝!

おっはよーございまーーす

 

本日は少々風が強いセントレア!!

 

RJGG 180000Z 12023KT 9999 FEW030 SCT080 BKN/// 22/14 Q1020 NOSIG

USING RWY 18っす!!

 

風。。。23ktでしたか・・・確かに空港までの連絡橋で車のハンドルが風でとられました

 

皆様も本日車でのご来店の際には、お気をつけくださいね〜〜

 

 

さて。。。

 

本日の記事は・・・

 

昨日岡山からお越しいただきましたHさん(女性)!!

 

Hさんは古くからの常連さまではありますが、岡山からセントレアは

 

羽田に行くよりも、時間がかかると・・・

 

航空機では便もないし、中途半端に時間がかかる・・・

 

確かにそうです!!

 

OPEN前に一度セントレアにもお越しいただきましたが、

 

OPEN後は初めてのご来店になりました〜

 

そこで・・・・・

 

いきなり・・・・

 

「これどーーーぞ!」  と・・・・・・

 

「えっ?なんですか??」  と、聞くと・・・

 

「「開けてくださいよ!!」」  と・・・・

 

「はい、開けてみまーーす」

 

img_2925

 

じゃじゃーーん!!

 

なんじゃこりゃーーーーーーーーーーーーーーーーーー

 

す・す・すごーーーーい

 

これは、びっくりしたというか、感動したというか・・・・

 

そこでHさんは、お気楽に「食べてくださいね!」と・・・・

 

これ、もったいなくて食べれないですよ・・・・

 

だって、弊社のLOGOマークまで・・・・

 

ただ、ただ感謝としか言いようがありません。

 

Hさん!!本当にありがとうございました!!

 

img_2929

 

そんなこんなの話を終えて、いざフライトへ!!

 

内容はエアーワーク

 

しかもRAW DATE

 

しかも久々なのに・・・・

 

 

 

 

お上手

 

 

 

 

やはり、体が覚えてるんですね!!

 

いやいやお見事!!

 

ともあれ、楽しいあっという間の60分でした!!

 

Hさん!!

 

いつもご遠方からのご来店、本当にありがとうございます。

 

また、今回は心温まる贈り物、本当にありがとうございます。

 

いつもいつも・・・・

 

 

 

「感謝」

TOP